Time;durP1;ratioP1;P1;durP2;ratioP2;P2;SDS_P1;SDS_P2;PMS_P1;PMS_P2;Temp;Humidity;BMP_temperature;BMP_pressure;BME280_temperature;BME280_humidity;BME280_pressure;Samples;Min_cycle;Max_cycle;Signal;HPM_P1;HPM_P2
2022/12/17 13:06:58;;;;;;;0.40;0.40;;;13.50;64.40;;;;;;5052911;28;20298;-62
2022/12/17 13:09:49;;;;;;;0.40;0.40;;;13.40;64.10;;;;;;5053980;28;20588;-62
2022/12/17 13:12:45;;;;;;;0.40;0.40;;;13.40;64.50;;;;;;5054494;28;20302;-62
2022/12/17 13:15:40;;;;;;;0.40;0.40;;;13.20;72.00;;;;;;5054386;28;20631;-62
2022/12/17 13:18:32;;;;;;;0.40;0.40;;;13.20;65.00;;;;;;5054267;28;20755;-63
2022/12/17 13:21:26;;;;;;;0.40;0.40;;;13.10;65.00;;;;;;5053907;28;20259;-62
2022/12/17 13:24:24;;;;;;;17.20;3.43;;;13.00;64.90;;;;;;5053869;28;20283;-61
2022/12/17 13:27:28;;;;;;;0.40;0.40;;;12.90;65.00;;;;;;5054169;28;20631;-62
2022/12/17 13:30:30;;;;;;;0.40;0.40;;;12.90;65.20;;;;;;5053904;28;20267;-62
2022/12/17 13:33:27;;;;;;;0.40;0.40;;;12.90;65.40;;;;;;5054608;28;20535;-62
2022/12/17 13:36:23;;;;;;;0.60;0.60;;;12.90;65.40;;;;;;5053919;28;20280;-62
2022/12/17 13:39:33;;;;;;;0.40;0.40;;;12.90;65.70;;;;;;5053824;28;20932;-60
2022/12/17 13:42:27;;;;;;;0.40;0.40;;;12.90;66.10;;;;;;5053808;28;20761;-62
2022/12/17 13:45:18;;;;;;;0.40;0.40;;;12.90;66.40;;;;;;5053919;28;20217;-62
2022/12/17 13:48:20;;;;;;;0.40;0.40;;;13.00;66.30;;;;;;5054213;28;20675;-62
2022/12/17 13:51:19;;;;;;;0.40;0.40;;;13.20;66.10;;;;;;5053244;28;20280;-62
2022/12/17 13:54:14;;;;;;;3.63;3.43;;;13.30;65.90;;;;;;5053805;28;20452;-61
2022/12/17 13:57:10;;;;;;;0.40;0.40;;;13.40;65.70;;;;;;5053040;28;20204;-62
2022/12/17 14:00:01;;;;;;;0.40;0.40;;;13.50;65.60;;;;;;5053403;28;20283;-62
2022/12/17 14:02:49;;;;;;;0.40;0.40;;;13.60;65.50;;;;;;5053600;28;20585;-62
2022/12/17 14:05:43;;;;;;;1.27;1.23;;;13.60;65.30;;;;;;5053864;28;20213;-61
2022/12/17 14:08:33;;;;;;;0.60;0.60;;;13.60;65.10;;;;;;5054044;28;20233;-61
2022/12/17 14:14:31;;;;;;;0.40;0.40;;;13.60;65.00;;;;;;5054612;28;20193;-61
2022/12/17 14:17:21;;;;;;;0.40;0.40;;;13.60;65.00;;;;;;5053379;28;20233;-61
2022/12/17 14:20:14;;;;;;;0.40;0.40;;;13.60;64.90;;;;;;5053774;28;20800;-62
2022/12/17 14:23:08;;;;;;;0.40;0.40;;;13.50;65.00;;;;;;5053903;28;20275;-62
2022/12/17 14:25:57;;;;;;;0.40;0.40;;;13.50;64.70;;;;;;5053801;28;20300;-61
2022/12/17 14:28:47;;;;;;;0.40;0.40;;;13.40;64.70;;;;;;5054012;28;20968;-61
2022/12/17 14:31:37;;;;;;;0.40;0.40;;;13.30;64.60;;;;;;5054091;28;20455;-62
2022/12/17 14:34:26;;;;;;;0.50;0.50;;;13.20;65.00;;;;;;5053567;28;20193;-62
2022/12/17 14:37:18;;;;;;;0.50;0.50;;;13.20;64.90;;;;;;5053577;28;20574;-62
2022/12/17 14:40:14;;;;;;;0.40;0.40;;;13.20;64.90;;;;;;5053161;28;20477;-61
2022/12/17 14:43:02;;;;;;;0.40;0.40;;;13.10;64.80;;;;;;5053164;28;20498;-62
2022/12/17 14:49:00;;;;;;;1.50;1.50;;;13.10;65.20;;;;;;5053893;28;20917;-62
2022/12/17 14:51:49;;;;;;;0.50;0.50;;;13.00;65.50;;;;;;5053168;28;20456;-62
2022/12/17 14:54:43;;;;;;;0.50;0.50;;;13.00;65.40;;;;;;5053190;28;20503;-61
2022/12/17 14:57:33;;;;;;;0.70;0.70;;;12.90;66.30;;;;;;5053316;28;20428;-62
2022/12/17 15:00:21;;;;;;;0.40;0.40;;;13.00;66.10;;;;;;5053651;28;20232;-61
2022/12/17 15:03:11;;;;;;;0.40;0.40;;;13.10;66.20;;;;;;5053301;28;20593;-61
2022/12/17 15:06:02;;;;;;;0.40;0.40;;;13.20;66.10;;;;;;5052589;28;20463;-61
2022/12/17 15:08:52;;;;;;;0.40;0.40;;;13.30;66.00;;;;;;5053277;28;20429;-62
2022/12/17 15:11:40;;;;;;;0.40;0.40;;;13.30;65.80;;;;;;5053115;28;20420;-61
2022/12/17 15:14:29;;;;;;;0.90;0.90;;;13.40;65.70;;;;;;5052575;28;20205;-62
2022/12/17 15:17:17;;;;;;;0.40;0.40;;;13.30;65.60;;;;;;5053141;28;20294;-61
2022/12/17 15:20:08;;;;;;;1.53;1.43;;;13.40;65.60;;;;;;5052712;28;20288;-61
2022/12/17 15:22:57;;;;;;;1.23;1.23;;;13.40;65.40;;;;;;5052765;28;20527;-62
2022/12/17 15:25:46;;;;;;;0.40;0.40;;;13.40;65.40;;;;;;5052764;28;20217;-62
2022/12/17 15:28:34;;;;;;;1.90;1.80;;;13.40;65.30;;;;;;5052273;28;20197;-62
2022/12/17 15:31:24;;;;;;;0.40;0.40;;;13.30;65.10;;;;;;5052694;28;20416;-62
2022/12/17 15:34:17;;;;;;;0.40;0.40;;;13.20;64.90;;;;;;5053450;28;20563;-62
2022/12/17 15:37:05;;;;;;;0.40;0.40;;;13.20;64.90;;;;;;5053760;28;20475;-62
2022/12/17 15:39:55;;;;;;;0.40;0.40;;;13.20;65.10;;;;;;5063021;28;20483;-62
2022/12/17 15:45:53;;;;;;;0.40;0.40;;;13.10;64.80;;;;;;5063837;28;20299;-62
2022/12/17 15:48:42;;;;;;;0.40;0.40;;;13.00;65.00;;;;;;5064289;28;20201;-62
2022/12/17 15:51:37;;;;;;;0.40;0.40;;;13.00;65.10;;;;;;5064284;28;20294;-61
2022/12/17 15:54:25;;;;;;;0.40;0.40;;;13.00;65.10;;;;;;5063820;28;20231;-62
2022/12/17 15:57:13;;;;;;;0.40;0.40;;;12.90;65.40;;;;;;5064395;28;20424;-61
2022/12/17 16:00:07;;;;;;;0.40;0.40;;;12.80;65.50;;;;;;5064825;28;20439;-61
2022/12/17 16:02:55;;;;;;;0.40;0.40;;;12.80;65.80;;;;;;5064199;28;20509;-61
2022/12/17 16:05:44;;;;;;;0.40;0.40;;;12.80;65.70;;;;;;5064494;28;20506;-61
2022/12/17 16:08:32;;;;;;;0.40;0.40;;;11.30;65.00;;;;;;5064473;28;20693;-62
2022/12/17 16:11:21;;;;;;;0.40;0.40;;;12.80;66.50;;;;;;5059936;28;20259;-62
2022/12/17 16:14:09;;;;;;;0.40;0.40;;;12.90;66.40;;;;;;5052660;28;21050;-61
2022/12/17 16:16:57;;;;;;;2.70;2.60;;;13.10;66.20;;;;;;5052361;28;20542;-61
2022/12/17 16:19:45;;;;;;;0.40;0.40;;;13.20;66.00;;;;;;5052585;28;20428;-62
2022/12/17 16:22:34;;;;;;;0.97;0.97;;;13.30;66.50;;;;;;5052269;28;20233;-61
2022/12/17 16:25:22;;;;;;;4.27;1.47;;;13.40;65.70;;;;;;5052431;28;20234;-61
2022/12/17 16:28:10;;;;;;;0.77;0.77;;;13.40;65.50;;;;;;5052248;28;20242;-62
2022/12/17 16:31:00;;;;;;;0.40;0.40;;;13.40;65.40;;;;;;5051677;28;20251;-62
2022/12/17 16:33:48;;;;;;;0.40;0.40;;;13.50;65.40;;;;;;5052447;28;20866;-62
2022/12/17 16:36:36;;;;;;;0.40;0.40;;;13.40;65.20;;;;;;5052344;28;20279;-62
2022/12/17 16:39:26;;;;;;;0.40;0.40;;;;;;;;;;5053111;28;20217;-62
2022/12/17 16:42:14;;;;;;;0.40;0.40;;;13.50;65.30;;;;;;5056487;28;20578;-62
2022/12/17 16:45:02;;;;;;;0.40;0.40;;;13.50;65.40;;;;;;5055522;28;20201;-62
2022/12/17 16:47:50;;;;;;;1.33;1.23;;;13.50;64.80;;;;;;5055114;28;20452;-61
2022/12/17 16:50:38;;;;;;;0.40;0.40;;;13.40;64.80;;;;;;5055318;28;20259;-62
2022/12/17 16:53:26;;;;;;;0.40;0.40;;;13.40;64.90;;;;;;5056047;28;20221;-60
2022/12/17 16:56:20;;;;;;;0.40;0.40;;;13.30;65.20;;;;;;5055850;28;20290;-61
2022/12/17 16:59:10;;;;;;;0.40;0.40;;;13.30;64.70;;;;;;5054760;28;20247;-61
2022/12/17 17:01:59;;;;;;;0.40;0.40;;;13.20;64.70;;;;;;5055291;28;20693;-62
2022/12/17 17:04:47;;;;;;;0.40;0.40;;;13.10;64.80;;;;;;5131202;22;21022;-64
2022/12/17 17:07:35;;;;;;;0.40;0.40;;;13.00;64.70;;;;;;5116496;28;20456;-63
2022/12/17 17:10:23;;;;;;;0.40;0.40;;;12.90;65.00;;;;;;5116007;28;20508;-64
2022/12/17 17:13:13;;;;;;;0.40;0.40;;;12.90;65.30;;;;;;5115802;28;20575;-64
2022/12/17 17:16:01;;;;;;;0.40;0.40;;;12.80;65.20;;;;;;5115839;28;20475;-63
2022/12/17 17:18:50;;;;;;;0.40;0.40;;;12.80;65.30;;;;;;5116460;28;20249;-63
2022/12/17 17:21:40;;;;;;;0.50;0.50;;;12.70;66.10;;;;;;5116458;28;20512;-64
2022/12/17 17:24:28;;;;;;;0.40;0.40;;;12.90;66.20;;;;;;5116926;27;20215;-63
2022/12/17 17:27:16;;;;;;;1.37;1.37;;;13.10;66.20;;;;;;5115290;28;20529;-64
2022/12/17 17:30:07;;;;;;;0.50;0.50;;;13.20;66.10;;;;;;5116540;28;20467;-63
2022/12/17 17:32:55;;;;;;;1.37;1.37;;;13.40;65.50;;;;;;5115497;28;20428;-65
2022/12/17 17:35:42;;;;;;;0.60;0.60;;;13.40;65.60;;;;;;5116118;28;20418;-64
2022/12/17 17:38:32;;;;;;;0.90;0.90;;;13.50;65.50;;;;;;5116651;28;20516;-64
2022/12/17 17:41:22;;;;;;;0.40;0.40;;;13.60;65.30;;;;;;5116887;28;20449;-63
2022/12/17 17:44:13;;;;;;;0.40;0.40;;;13.70;65.20;;;;;;5116576;28;20505;-63
2022/12/17 17:47:02;;;;;;;0.40;0.40;;;13.70;65.00;;;;;;5116241;28;20509;-63
2022/12/17 17:49:50;;;;;;;0.40;0.40;;;13.80;65.00;;;;;;5116817;27;20425;-63
2022/12/17 17:52:38;;;;;;;0.50;0.50;;;13.80;64.60;;;;;;5116418;28;21059;-63
2022/12/17 17:55:26;;;;;;;0.40;0.40;;;13.80;64.80;;;;;;5116922;28;20429;-64
2022/12/17 17:58:14;;;;;;;0.40;0.40;;;13.80;64.70;;;;;;5116881;28;20446;-65
2022/12/17 18:01:08;;;;;;;2.10;2.00;;;13.70;64.30;;;;;;5116212;28;20685;-63
2022/12/17 18:04:01;;;;;;;0.40;0.40;;;13.70;64.30;;;;;;5115626;28;20227;-64
2022/12/17 18:06:49;;;;;;;0.40;0.40;;;13.60;64.40;;;;;;5115719;28;20977;-63
2022/12/17 18:09:58;;;;;;;0.70;0.70;;;13.50;64.70;;;;;;5116374;28;20424;-64
2022/12/17 18:15:52;;;;;;;1.93;1.83;;;13.40;64.00;;;;;;5115916;28;20584;-64
2022/12/17 18:18:40;;;;;;;0.40;0.40;;;13.30;64.40;;;;;;5115977;28;20422;-63
2022/12/17 18:21:31;;;;;;;0.40;0.40;;;13.20;64.70;;;;;;5114888;28;20274;-65
2022/12/17 18:24:21;;;;;;;0.40;0.40;;;13.10;64.70;;;;;;5115355;28;20814;-61
2022/12/17 18:27:09;;;;;;;0.40;0.40;;;13.00;64.20;;;;;;5114794;28;20236;-63
2022/12/17 18:29:57;;;;;;;0.50;0.50;;;12.90;64.70;;;;;;5115264;28;20421;-63
2022/12/17 18:32:45;;;;;;;0.40;0.40;;;12.80;64.60;;;;;;5115742;28;20278;-64
2022/12/17 18:35:33;;;;;;;0.50;0.50;;;12.70;65.10;;;;;;5115290;28;20202;-63
2022/12/17 18:38:23;;;;;;;0.40;0.40;;;12.70;65.40;;;;;;5115001;28;20841;-64
2022/12/17 18:44:21;;;;;;;2.60;2.50;;;12.90;66.10;;;;;;5114303;28;20586;-64
2022/12/17 18:47:10;;;;;;;0.87;0.87;;;13.10;65.90;;;;;;5114841;28;20653;-64
2022/12/17 18:49:58;;;;;;;0.40;0.40;;;13.30;65.70;;;;;;5114578;28;20199;-64
2022/12/17 18:52:46;;;;;;;0.40;0.40;;;13.50;65.50;;;;;;5114967;28;20272;-63
2022/12/17 18:55:39;;;;;;;0.50;0.50;;;13.60;65.30;;;;;;5115263;28;21031;-64
2022/12/17 18:58:27;;;;;;;0.40;0.40;;;13.60;65.00;;;;;;5114780;28;20421;-70
2022/12/17 19:01:20;;;;;;;0.40;0.40;;;13.70;64.90;;;;;;5114691;28;20200;-64
2022/12/17 19:04:09;;;;;;;0.40;0.40;;;13.80;64.70;;;;;;5114898;28;20460;-64
2022/12/17 19:06:57;;;;;;;0.50;0.50;;;13.80;64.60;;;;;;5114315;28;20625;-63
2022/12/17 19:09:45;;;;;;;0.40;0.40;;;13.80;64.40;;;;;;5114929;28;20497;-64
2022/12/17 19:12:35;;;;;;;0.40;0.40;;;13.80;64.30;;;;;;5115525;28;20520;-64
2022/12/17 19:15:23;;;;;;;0.40;0.40;;;13.70;64.00;;;;;;5115335;28;20252;-63
2022/12/17 19:18:11;;;;;;;0.40;0.40;;;13.70;64.10;;;;;;5115247;28;20574;-63
2022/12/17 19:20:59;;;;;;;1.80;1.80;;;13.60;64.50;;;;;;5114671;28;20833;-63
2022/12/17 19:23:48;;;;;;;0.47;0.47;;;13.60;64.40;;;;;;5114586;28;20536;-63
2022/12/17 19:26:36;;;;;;;0.40;0.40;;;13.50;64.40;;;;;;5114602;28;20333;-64
2022/12/17 19:29:25;;;;;;;0.40;0.40;;;13.40;64.00;;;;;;5114605;28;20618;-63
2022/12/17 19:32:13;;;;;;;0.40;0.40;;;13.30;64.00;;;;;;5114316;28;20760;-64
2022/12/17 19:35:01;;;;;;;0.60;0.60;;;13.20;63.50;;;;;;5114686;28;20437;-63
2022/12/17 19:37:51;;;;;;;0.40;0.40;;;13.10;64.20;;;;;;5114913;28;20247;-63
2022/12/17 19:40:39;;;;;;;0.40;0.40;;;13.00;63.80;;;;;;5114047;28;20575;-62
2022/12/17 19:43:27;;;;;;;2.10;2.00;;;12.90;64.30;;;;;;5114098;28;20524;-63
2022/12/17 19:46:18;;;;;;;0.40;0.40;;;12.90;64.50;;;;;;5113952;28;20417;-64
2022/12/17 19:49:06;;;;;;;0.40;0.40;;;12.80;64.60;;;;;;5113940;28;20503;-64
2022/12/17 19:51:54;;;;;;;0.70;0.70;;;12.80;64.60;;;;;;5114008;28;20453;-65
2022/12/17 19:54:44;;;;;;;0.40;0.40;;;12.90;64.90;;;;;;5113859;28;20520;-63
2022/12/17 19:57:34;;;;;;;0.40;0.40;;;12.80;65.00;;;;;;5113524;28;20505;-63
2022/12/17 20:00:22;;;;;;;0.40;0.40;;;12.80;65.20;;;;;;5112361;28;20841;-65
2022/12/17 20:03:11;;;;;;;0.40;0.40;;;12.80;65.10;;;;;;5112197;28;20544;-64
2022/12/17 20:05:59;;;;;;;0.87;0.87;;;12.70;65.30;;;;;;5112556;28;20429;-64
2022/12/17 20:08:48;;;;;;;0.40;0.40;;;12.80;66.00;;;;;;5113171;28;20468;-64
2022/12/17 20:11:36;;;;;;;0.40;0.40;;;12.90;65.90;;;;;;5113498;28;20508;-63
2022/12/17 20:14:28;;;;;;;0.67;0.67;;;13.00;65.70;;;;;;5115800;28;20466;-63
2022/12/17 20:17:16;;;;;;;0.40;0.40;;;13.00;65.50;;;;;;5116527;28;20750;-64
2022/12/17 20:20:06;;;;;;;0.40;0.40;;;13.10;65.00;;;;;;5117373;28;20195;-64
2022/12/17 20:22:54;;;;;;;0.40;0.40;;;12.90;69.50;;;;;;5117076;28;20417;-63
2022/12/17 20:25:42;;;;;;;0.40;0.40;;;13.00;65.10;;;;;;5118089;28;20513;-61
2022/12/17 20:28:30;;;;;;;3.70;2.20;;;13.00;64.80;;;;;;5117477;28;20930;-63
2022/12/17 20:31:18;;;;;;;0.40;0.40;;;12.90;65.00;;;;;;5117264;28;20504;-62
2022/12/17 20:34:11;;;;;;;0.40;0.40;;;12.90;64.70;;;;;;5117173;28;20243;-62
2022/12/17 20:37:00;;;;;;;0.40;0.40;;;12.80;64.80;;;;;;5117317;28;20456;-62
2022/12/17 20:39:48;;;;;;;0.40;0.40;;;12.80;64.20;;;;;;5115997;28;20418;-63
2022/12/17 20:42:36;;;;;;;0.50;0.50;;;12.70;64.50;;;;;;5117236;28;21012;-64
2022/12/17 20:45:24;;;;;;;0.40;0.40;;;12.70;64.50;;;;;;5117264;28;20494;-64
2022/12/17 20:48:12;;;;;;;1.00;1.00;;;12.60;64.80;;;;;;5116526;28;20594;-64
2022/12/17 20:51:05;;;;;;;5.90;4.10;;;12.60;64.50;;;;;;5115511;28;20456;-64
2022/12/17 20:53:56;;;;;;;0.93;0.93;;;12.50;64.70;;;;;;5116257;28;20294;-63
2022/12/17 20:56:44;;;;;;;2.17;2.07;;;12.50;64.80;;;;;;5117319;28;20510;-63
2022/12/17 20:59:32;;;;;;;2.93;1.83;;;12.50;64.80;;;;;;5116683;28;20504;-64
2022/12/17 21:02:20;;;;;;;0.63;0.63;;;12.50;65.50;;;;;;5116631;28;20860;-64
2022/12/17 21:05:09;;;;;;;0.50;0.50;;;12.70;66.00;;;;;;5116024;28;20421;-64
2022/12/17 21:07:57;;;;;;;0.40;0.40;;;12.80;65.80;;;;;;5116363;28;20456;-63
2022/12/17 21:10:46;;;;;;;0.70;0.70;;;12.90;65.50;;;;;;5116431;28;20503;-63
2022/12/17 21:13:36;;;;;;;0.40;0.40;;;13.00;65.30;;;;;;5115396;28;20536;-63
2022/12/17 21:16:26;;;;;;;1.33;1.33;;;13.10;65.30;;;;;;5116092;28;20429;-63
2022/12/17 21:19:17;;;;;;;0.40;0.40;;;13.10;65.00;;;;;;5116482;28;20436;-64
2022/12/17 21:22:05;;;;;;;0.43;0.43;;;13.10;64.70;;;;;;5115520;28;20421;-63
2022/12/17 21:24:55;;;;;;;0.40;0.40;;;13.10;64.50;;;;;;5115521;28;20226;-64
2022/12/17 21:27:44;;;;;;;0.40;0.40;;;13.10;64.60;;;;;;5116594;28;20906;-63
2022/12/17 21:30:35;;;;;;;0.40;0.40;;;13.00;64.10;;;;;;5115399;28;20253;-64
2022/12/17 21:33:24;;;;;;;0.40;0.40;;;13.00;64.30;;;;;;5116151;28;20453;-63
2022/12/17 21:36:12;;;;;;;0.40;0.40;;;13.00;64.60;;;;;;5114414;28;20424;-64
2022/12/17 21:39:01;;;;;;;0.50;0.50;;;12.90;64.20;;;;;;5115688;28;21018;-63
2022/12/17 21:45:04;;;;;;;0.40;0.40;;;12.70;63.80;;;;;;5115873;28;20528;-63
2022/12/17 21:47:52;;;;;;;0.40;0.40;;;12.70;64.10;;;;;;5114474;28;20506;-64
2022/12/17 21:50:41;;;;;;;0.40;0.40;;;12.60;64.10;;;;;;5114591;28;20467;-64
2022/12/17 21:53:29;;;;;;;0.40;0.40;;;12.50;64.30;;;;;;5115020;28;20441;-64
2022/12/17 21:56:19;;;;;;;0.40;0.40;;;12.50;63.80;;;;;;5115442;28;20420;-64
2022/12/17 21:59:07;;;;;;;0.50;0.50;;;12.50;64.50;;;;;;5114848;28;20418;-63
2022/12/17 22:01:56;;;;;;;0.40;0.40;;;12.50;65.70;;;;;;5115497;28;20506;-64
2022/12/17 22:04:44;;;;;;;0.50;0.50;;;12.70;65.60;;;;;;5115026;28;20599;-63
2022/12/17 22:07:33;;;;;;;1.50;1.50;;;12.90;65.50;;;;;;5114744;28;20430;-64
2022/12/17 22:10:34;;;;;;;0.50;0.50;;;13.10;65.20;;;;;;5115551;28;20621;-64
2022/12/17 22:16:41;;;;;;;3.53;3.23;;;13.40;64.70;;;;;;5114697;28;20558;-64
2022/12/17 22:19:31;;;;;;;0.40;0.40;;;13.50;64.50;;;;;;5114816;28;20448;-62
2022/12/17 22:22:19;;;;;;;0.60;0.60;;;13.50;64.30;;;;;;5115699;28;20862;-65
2022/12/17 22:25:08;;;;;;;0.40;0.40;;;13.50;64.10;;;;;;5115550;28;20424;-63
2022/12/17 22:27:58;;;;;;;0.40;0.40;;;13.60;64.00;;;;;;5114461;28;20239;-63
2022/12/17 22:33:54;;;;;;;0.40;0.40;;;13.60;63.50;;;;;;5114889;28;20448;-63
2022/12/17 22:37:03;;;;;;;0.40;0.40;;;13.50;63.60;;;;;;5113673;28;20200;-64
2022/12/17 22:40:12;;;;;;;0.40;0.40;;;13.40;63.00;;;;;;5115327;28;20202;-63
2022/12/17 22:43:28;;;;;;;0.40;0.40;;;13.30;63.30;;;;;;5114278;28;20734;-63
2022/12/17 22:46:36;;;;;;;0.40;0.40;;;13.20;63.10;;;;;;5115152;28;20199;-63
2022/12/17 22:49:24;;;;;;;0.40;0.40;;;13.10;63.00;;;;;;5115863;28;20215;-64
2022/12/17 22:52:14;;;;;;;1.43;1.37;;;13.00;63.10;;;;;;5114296;28;20965;-64
2022/12/17 22:55:06;;;;;;;0.77;0.77;;;13.00;62.80;;;;;;5115017;28;20199;-62
2022/12/17 22:57:54;;;;;;;0.40;0.40;;;12.90;63.00;;;;;;5114483;28;20195;-63
2022/12/17 23:00:42;;;;;;;0.40;0.40;;;12.80;63.20;;;;;;5113823;28;20192;-64
2022/12/17 23:03:30;;;;;;;0.40;0.40;;;12.70;62.90;;;;;;5114677;28;20575;-64
2022/12/17 23:06:19;;;;;;;0.40;0.40;;;12.60;63.10;;;;;;5114485;28;20282;-63
2022/12/17 23:09:08;;;;;;;0.73;0.73;;;12.50;63.60;;;;;;5114289;28;20579;-63
2022/12/17 23:11:58;;;;;;;0.50;0.50;;;12.60;63.80;;;;;;5113557;28;20421;-65
2022/12/17 23:15:06;;;;;;;0.40;0.40;;;12.60;65.00;;;;;;5113461;28;20556;-65
2022/12/17 23:17:55;;;;;;;0.40;0.40;;;12.70;64.90;;;;;;5113437;28;20911;-64
2022/12/17 23:20:43;;;;;;;0.40;0.40;;;12.90;64.90;;;;;;5113796;28;20237;-64
2022/12/17 23:23:31;;;;;;;0.40;0.40;;;13.20;64.90;;;;;;5114110;28;20992;-65
2022/12/17 23:26:23;;;;;;;0.50;0.50;;;13.40;64.50;;;;;;5114781;28;20428;-63
2022/12/17 23:29:14;;;;;;;0.70;0.70;;;13.50;64.10;;;;;;5113081;28;20556;-63
2022/12/17 23:32:06;;;;;;;2.60;2.50;;;13.70;64.00;;;;;;5115088;28;20436;-63
2022/12/17 23:34:54;;;;;;;3.50;2.73;;;13.70;63.70;;;;;;5114592;28;20272;-64
2022/12/17 23:37:42;;;;;;;0.40;0.40;;;13.80;63.50;;;;;;5114687;28;21028;-65
2022/12/17 23:40:30;;;;;;;0.40;0.40;;;13.80;63.30;;;;;;5114717;28;20420;-64
2022/12/17 23:43:20;;;;;;;0.50;0.50;;;13.90;63.30;;;;;;5114552;28;20302;-64
2022/12/17 23:46:09;;;;;;;1.13;1.13;;;13.90;63.00;;;;;;5114938;28;20914;-64
2022/12/17 23:48:58;;;;;;;0.40;0.40;;;13.90;63.00;;;;;;5113942;28;20465;-64
2022/12/17 23:51:46;;;;;;;0.60;0.60;;;13.80;62.70;;;;;;5114482;28;20676;-64
2022/12/17 23:54:34;;;;;;;0.40;0.40;;;13.70;63.70;;;;;;5114748;28;20498;-62
2022/12/17 23:57:22;;;;;;;2.27;2.13;;;13.60;62.80;;;;;;5114330;28;20246;-64
